Time;durP1;ratioP1;P1;durP2;ratioP2;P2;SDS_P1;SDS_P2;PMS_P1;PMS_P2;Temp;Humidity;BMP_temperature;BMP_pressure;BME280_temperature;BME280_humidity;BME280_pressure;Samples;Min_cycle;Max_cycle;Signal;HPM_P1;HPM_P2
2024/02/17 00:00:43;;;;;;;33.22;18.58;;;10.60;99.90;;;;;;4921438;28;20398;-81
2024/02/17 00:03:12;;;;;;;31.88;17.27;;;10.60;99.90;;;;;;4920199;28;20073;-81
2024/02/17 00:05:39;;;;;;;34.58;20.55;;;10.70;99.90;;;;;;4923863;28;20114;-81
2024/02/17 00:08:04;;;;;;;29.80;19.45;;;10.60;99.90;;;;;;4922317;28;20038;-81
2024/02/17 00:10:30;;;;;;;32.08;21.92;;;10.70;99.90;;;;;;4936153;28;20035;-80
2024/02/17 00:12:56;;;;;;;35.42;22.13;;;10.70;99.90;;;;;;4928207;28;20031;-81
2024/02/17 00:15:21;;;;;;;29.15;17.45;;;10.60;99.90;;;;;;4929170;28;20036;-80
2024/02/17 00:17:47;;;;;;;29.55;19.23;;;10.60;99.90;;;;;;4939828;28;20473;-81
2024/02/17 00:20:14;;;;;;;30.15;17.25;;;10.60;99.90;;;;;;4940641;28;20111;-81
2024/02/17 00:22:43;;;;;;;41.10;19.65;;;10.70;99.90;;;;;;4940831;28;20093;-81
2024/02/17 00:25:09;;;;;;;30.38;17.58;;;10.70;99.90;;;;;;4928256;28;20532;-81
2024/02/17 00:27:35;;;;;;;28.20;13.85;;;10.70;99.90;;;;;;4927407;28;20095;-81
2024/02/17 00:30:01;;;;;;;30.17;18.92;;;10.60;99.90;;;;;;4925986;28;20038;-81
2024/02/17 00:32:26;;;;;;;25.88;16.20;;;10.60;99.90;;;;;;4911878;28;20066;-81
2024/02/17 00:34:52;;;;;;;25.90;15.77;;;10.70;99.90;;;;;;4927146;28;20391;-81
2024/02/17 00:37:18;;;;;;;27.33;14.43;;;10.50;99.90;;;;;;4943551;28;20031;-81
2024/02/17 00:39:44;;;;;;;32.90;16.75;;;10.60;99.90;;;;;;4941314;28;20090;-81
2024/02/17 00:42:10;;;;;;;27.02;16.35;;;10.60;99.90;;;;;;4940216;28;20036;-81
2024/02/17 00:44:35;;;;;;;26.50;15.25;;;10.60;99.90;;;;;;4911734;28;20061;-81
2024/02/17 00:47:01;;;;;;;26.90;14.60;;;10.60;99.90;;;;;;4960596;28;20105;-81
2024/02/17 00:49:27;;;;;;;31.05;16.20;;;10.60;99.90;;;;;;4929683;28;20114;-81
2024/02/17 00:51:53;;;;;;;31.88;18.42;;;10.50;99.90;;;;;;4926074;28;20499;-81
2024/02/17 00:54:18;;;;;;;26.15;16.13;;;10.50;99.90;;;;;;4923485;28;20027;-81
2024/02/17 00:56:44;;;;;;;31.25;17.70;;;10.50;99.90;;;;;;4934493;28;20031;-81
2024/02/17 00:59:09;;;;;;;30.02;18.88;;;10.50;99.90;;;;;;4942210;28;20101;-81
2024/02/17 01:01:35;;;;;;;24.50;15.15;;;10.50;99.90;;;;;;4917811;28;20123;-81
2024/02/17 01:04:00;;;;;;;30.98;18.50;;;10.40;99.90;;;;;;4925708;28;20039;-81
2024/02/17 01:06:26;;;;;;;31.70;17.67;;;10.50;99.90;;;;;;4943219;28;20067;-80
2024/02/17 01:08:52;;;;;;;27.27;16.10;;;10.30;99.90;;;;;;4930093;28;20039;-81
2024/02/17 01:11:18;;;;;;;32.17;17.02;;;10.40;99.90;;;;;;4934836;28;20031;-81
2024/02/17 01:13:47;;;;;;;23.50;15.20;;;10.40;99.90;;;;;;4925686;28;20038;-81
2024/02/17 01:16:12;;;;;;;27.48;15.07;;;10.40;99.90;;;;;;4933305;28;20701;-82
2024/02/17 01:18:38;;;;;;;24.95;13.43;;;10.40;99.90;;;;;;4931474;28;20031;-80
2024/02/17 01:21:04;;;;;;;29.10;16.45;;;10.40;99.90;;;;;;4943294;28;20031;-81
2024/02/17 01:23:30;;;;;;;26.60;12.55;;;10.40;99.90;;;;;;4909385;28;20043;-81
2024/02/17 01:25:55;;;;;;;26.60;14.77;;;10.30;99.90;;;;;;4910664;28;20118;-81
2024/02/17 01:28:21;;;;;;;30.30;15.25;;;10.30;99.90;;;;;;4926664;28;20060;-81
2024/02/17 01:30:47;;;;;;;22.55;13.93;;;10.20;99.90;;;;;;4938231;28;20396;-81
2024/02/17 01:33:12;;;;;;;30.48;18.63;;;10.20;99.90;;;;;;4927705;28;20409;-81
2024/02/17 01:35:38;;;;;;;28.77;16.33;;;10.20;99.90;;;;;;4930485;28;20043;-81
2024/02/17 01:38:07;;;;;;;30.00;16.95;;;10.20;99.90;;;;;;4939333;28;20050;-81
2024/02/17 01:40:33;;;;;;;25.92;14.57;;;10.20;99.90;;;;;;4913115;28;20358;-81
2024/02/17 01:42:59;;;;;;;34.72;17.67;;;10.20;99.90;;;;;;4926676;28;20409;-81
2024/02/17 01:45:25;;;;;;;26.05;14.05;;;10.20;99.90;;;;;;4926416;28;20035;-81
2024/02/17 01:47:51;;;;;;;25.70;13.85;;;10.20;99.90;;;;;;4936073;28;20037;-82
2024/02/17 01:50:16;;;;;;;24.95;15.27;;;10.10;99.90;;;;;;4918578;28;20035;-81
2024/02/17 01:52:47;;;;;;;26.58;14.35;;;10.10;99.90;;;;;;4941236;28;20054;-81
2024/02/17 01:55:13;;;;;;;42.33;19.88;;;10.10;99.90;;;;;;4939622;28;20379;-81
2024/02/17 01:57:42;;;;;;;38.03;21.05;;;10.10;99.90;;;;;;4942520;28;20374;-81
2024/02/17 02:00:09;;;;;;;29.30;16.92;;;10.10;99.90;;;;;;4913141;28;20051;-81
2024/02/17 02:02:35;;;;;;;32.38;16.52;;;10.10;99.90;;;;;;4925929;28;20039;-81
2024/02/17 02:05:00;;;;;;;30.25;18.92;;;10.10;99.90;;;;;;4939160;28;20382;-80
2024/02/17 02:07:26;;;;;;;28.17;13.98;;;10.10;99.90;;;;;;4925119;28;20024;-80
2024/02/17 02:09:52;;;;;;;31.02;15.88;;;10.00;99.90;;;;;;4911582;29;20032;-81
2024/02/17 02:12:18;;;;;;;25.23;15.82;;;10.00;99.90;;;;;;4918527;28;20037;-80
2024/02/17 02:14:43;;;;;;;28.30;16.42;;;10.00;99.90;;;;;;4925725;28;20035;-80
2024/02/17 02:17:09;;;;;;;32.67;18.38;;;10.00;99.90;;;;;;4929247;28;20626;-80
2024/02/17 02:19:35;;;;;;;26.33;15.93;;;10.10;99.90;;;;;;4925601;28;20032;-81
2024/02/17 02:22:00;;;;;;;26.75;13.93;;;10.00;99.90;;;;;;4942543;28;20086;-80
2024/02/17 02:24:26;;;;;;;29.70;16.40;;;10.00;99.90;;;;;;4924736;28;20494;-80
2024/02/17 02:26:52;;;;;;;24.00;13.00;;;9.90;99.90;;;;;;4943035;28;20167;-81
2024/02/17 02:29:17;;;;;;;29.67;16.60;;;10.00;99.90;;;;;;4925425;28;20115;-80
2024/02/17 02:31:43;;;;;;;30.13;18.35;;;10.00;99.90;;;;;;4936686;28;21556;-80
2024/02/17 02:34:08;;;;;;;34.95;19.50;;;9.90;99.90;;;;;;4912570;28;20097;-80
2024/02/17 02:36:34;;;;;;;30.27;16.63;;;10.00;99.90;;;;;;4907956;28;20031;-80
2024/02/17 02:38:59;;;;;;;27.25;15.18;;;10.00;99.90;;;;;;4941207;28;20028;-81
2024/02/17 02:41:25;;;;;;;31.13;18.05;;;9.90;99.90;;;;;;4928185;28;20039;-80
2024/02/17 02:43:51;;;;;;;29.02;15.88;;;9.90;99.90;;;;;;4912705;29;20228;-80
2024/02/17 02:46:16;;;;;;;26.95;15.38;;;9.90;99.90;;;;;;4924367;28;20027;-80
2024/02/17 02:48:42;;;;;;;29.58;16.48;;;9.90;99.90;;;;;;4907221;28;20039;-81
2024/02/17 02:51:08;;;;;;;35.35;18.45;;;9.90;99.90;;;;;;4926556;28;20093;-82
2024/02/17 02:53:33;;;;;;;28.73;16.95;;;9.90;99.90;;;;;;4924482;28;20040;-80
2024/02/17 02:55:59;;;;;;;32.10;18.80;;;9.90;99.90;;;;;;4941942;28;20038;-80
2024/02/17 02:58:24;;;;;;;27.90;14.10;;;9.90;99.90;;;;;;4924142;28;20058;-81
2024/02/17 03:00:50;;;;;;;31.98;16.73;;;10.00;99.90;;;;;;4926419;28;20031;-81
2024/02/17 03:03:16;;;;;;;31.48;13.90;;;9.90;99.90;;;;;;4940738;28;20501;-81
2024/02/17 03:05:41;;;;;;;31.05;15.93;;;9.90;99.90;;;;;;4924564;28;20024;-81
2024/02/17 03:08:07;;;;;;;28.10;14.43;;;9.90;99.90;;;;;;4937946;28;20036;-81
2024/02/17 03:10:32;;;;;;;35.08;15.15;;;9.80;99.90;;;;;;4912463;28;20039;-81
2024/02/17 03:12:59;;;;;;;29.98;14.85;;;9.90;99.90;;;;;;4943470;28;20038;-81
2024/02/17 03:15:24;;;;;;;28.50;17.65;;;9.90;99.90;;;;;;4912732;28;20031;-80
2024/02/17 03:17:53;;;;;;;32.20;19.02;;;9.90;99.90;;;;;;4924592;28;20121;-81
2024/02/17 03:20:19;;;;;;;33.90;18.50;;;9.80;99.90;;;;;;4910515;28;20046;-81
2024/02/17 03:22:45;;;;;;;30.45;16.23;;;9.80;99.90;;;;;;4927772;28;20043;-80
2024/02/17 03:25:11;;;;;;;29.73;16.33;;;9.80;99.90;;;;;;4942897;28;20194;-80
2024/02/17 03:27:37;;;;;;;37.67;16.92;;;9.90;99.90;;;;;;4924168;28;20039;-80
2024/02/17 03:30:06;;;;;;;31.00;15.82;;;9.80;99.90;;;;;;4942487;28;20398;-80
2024/02/17 03:32:32;;;;;;;32.50;19.13;;;9.80;99.90;;;;;;4912270;28;20336;-80
2024/02/17 03:34:58;;;;;;;35.17;15.32;;;9.70;99.90;;;;;;4937196;28;20485;-80
2024/02/17 03:37:25;;;;;;;32.85;20.23;;;9.90;99.90;;;;;;4927385;28;20082;-80
2024/02/17 03:39:51;;;;;;;37.60;19.73;;;9.80;99.90;;;;;;4925560;28;20051;-81
2024/02/17 03:42:16;;;;;;;31.48;16.92;;;9.90;99.90;;;;;;4924999;28;20382;-81
2024/02/17 03:44:42;;;;;;;37.80;19.25;;;9.80;99.90;;;;;;4927578;28;20039;-80
2024/02/17 03:47:08;;;;;;;34.13;17.52;;;9.80;99.90;;;;;;4941070;28;20167;-81
2024/02/17 03:49:33;;;;;;;26.58;11.80;;;9.80;99.90;;;;;;4926596;28;20421;-80
2024/02/17 03:51:59;;;;;;;35.50;18.52;;;9.80;99.90;;;;;;4926104;28;20414;-80
2024/02/17 03:54:25;;;;;;;29.85;14.68;;;9.80;99.90;;;;;;4916799;28;20075;-80
2024/02/17 03:56:50;;;;;;;26.25;12.60;;;9.80;99.90;;;;;;4930378;28;20113;-80
2024/02/17 03:59:16;;;;;;;33.65;16.38;;;9.70;99.90;;;;;;4931371;28;20047;-80
2024/02/17 04:01:42;;;;;;;34.65;18.50;;;9.70;99.90;;;;;;4944108;28;20046;-80
2024/02/17 04:04:07;;;;;;;30.85;18.15;;;9.70;99.90;;;;;;4931195;28;20047;-81
2024/02/17 04:06:33;;;;;;;24.67;12.88;;;9.80;99.90;;;;;;4944827;28;20352;-80
2024/02/17 04:08:59;;;;;;;29.52;16.60;;;9.80;99.90;;;;;;4915471;28;20031;-80
2024/02/17 04:11:27;;;;;;;30.88;17.83;;;9.80;99.90;;;;;;4930733;28;20593;-80
2024/02/17 04:13:53;;;;;;;27.33;16.40;;;9.70;99.90;;;;;;4932801;28;20134;-80
2024/02/17 04:16:19;;;;;;;26.92;13.05;;;9.90;99.90;;;;;;4946205;28;20474;-82
2024/02/17 04:18:45;;;;;;;26.77;15.25;;;9.80;99.90;;;;;;4942238;28;20117;-80
2024/02/17 04:21:11;;;;;;;27.67;16.35;;;9.70;99.90;;;;;;4912788;28;20039;-80
2024/02/17 04:23:37;;;;;;;36.65;19.33;;;9.80;99.90;;;;;;4929460;28;20034;-79
2024/02/17 04:26:05;;;;;;;25.17;15.60;;;9.80;99.90;;;;;;4913918;28;20092;-82
2024/02/17 04:28:31;;;;;;;32.33;18.83;;;9.70;99.90;;;;;;4914006;28;20046;-82
2024/02/17 04:30:57;;;;;;;30.25;15.95;;;9.80;99.90;;;;;;4944860;28;20040;-82
2024/02/17 04:33:22;;;;;;;32.20;17.60;;;9.80;99.90;;;;;;4945664;28;20129;-82
2024/02/17 04:35:51;;;;;;;39.45;18.33;;;9.80;99.90;;;;;;4945148;28;20512;-79
2024/02/17 04:38:17;;;;;;;39.92;20.35;;;9.70;99.90;;;;;;4941778;28;20032;-82
2024/02/17 04:40:42;;;;;;;32.88;16.35;;;9.80;99.90;;;;;;4943771;28;20420;-79
2024/02/17 04:43:08;;;;;;;34.67;18.52;;;9.70;99.90;;;;;;4929682;28;20042;-82
2024/02/17 04:45:33;;;;;;;36.20;19.98;;;9.70;99.90;;;;;;4916120;28;20035;-81
2024/02/17 04:47:59;;;;;;;28.95;17.15;;;9.70;99.90;;;;;;4930729;28;20093;-82
2024/02/17 04:50:24;;;;;;;25.23;13.70;;;9.70;99.90;;;;;;4944596;28;20093;-80
2024/02/17 04:52:50;;;;;;;34.67;19.42;;;9.70;99.90;;;;;;4914224;28;20097;-80
2024/02/17 04:55:15;;;;;;;34.47;22.70;;;9.80;99.90;;;;;;4930909;28;20046;-80
2024/02/17 04:57:41;;;;;;;26.20;15.52;;;9.80;99.90;;;;;;4914547;28;20528;-81
2024/02/17 05:00:08;;;;;;;26.88;16.63;;;9.70;99.90;;;;;;4925562;28;20039;-80
2024/02/17 05:02:36;;;;;;;30.58;17.02;;;9.70;99.90;;;;;;4930787;28;20086;-80
2024/02/17 05:05:02;;;;;;;26.33;15.85;;;9.70;99.90;;;;;;4930652;28;20966;-80
2024/02/17 05:07:27;;;;;;;26.13;14.77;;;9.80;99.90;;;;;;4913936;28;20044;-80
2024/02/17 05:09:53;;;;;;;34.55;21.42;;;9.80;99.90;;;;;;4927049;28;20032;-80
2024/02/17 05:12:18;;;;;;;22.30;12.20;;;9.80;99.90;;;;;;4928095;28;20046;-81
2024/02/17 05:14:44;;;;;;;37.78;21.92;;;9.70;99.90;;;;;;4945124;28;20035;-81
2024/02/17 05:17:09;;;;;;;29.90;16.98;;;9.70;99.90;;;;;;4926588;28;20493;-81
2024/02/17 05:19:35;;;;;;;25.20;14.82;;;9.70;99.90;;;;;;4913703;28;20501;-80
2024/02/17 05:22:01;;;;;;;30.25;17.27;;;9.80;99.90;;;;;;4928977;28;20024;-81
2024/02/17 05:24:26;;;;;;;38.53;19.30;;;9.80;99.90;;;;;;4943116;28;20047;-80
2024/02/17 05:26:52;;;;;;;36.70;22.73;;;9.80;99.90;;;;;;4943636;28;20037;-80
2024/02/17 05:29:19;;;;;;;30.60;18.60;;;9.80;99.90;;;;;;4942381;28;20032;-81
2024/02/17 05:31:45;;;;;;;32.85;19.48;;;9.80;99.90;;;;;;4926216;28;20075;-80
2024/02/17 05:34:11;;;;;;;33.88;19.23;;;9.90;99.90;;;;;;4929443;28;20400;-80
2024/02/17 05:36:36;;;;;;;42.58;20.55;;;9.80;99.90;;;;;;4915408;28;20126;-80
2024/02/17 05:39:03;;;;;;;31.67;17.30;;;9.70;99.90;;;;;;4911248;28;20454;-80
2024/02/17 05:41:28;;;;;;;39.15;22.92;;;9.70;99.90;;;;;;4957564;28;20051;-80
2024/02/17 05:43:54;;;;;;;30.25;17.63;;;9.70;99.90;;;;;;4908255;28;20044;-80
2024/02/17 05:46:25;;;;;;;29.08;17.00;;;9.70;99.90;;;;;;4911794;28;20137;-81
2024/02/17 05:48:51;;;;;;;31.13;19.15;;;9.70;99.90;;;;;;4923963;28;20031;-81
2024/02/17 05:51:17;;;;;;;27.90;16.38;;;9.70;99.90;;;;;;4926451;28;20493;-81
2024/02/17 05:53:42;;;;;;;31.58;19.40;;;9.70;99.90;;;;;;4940508;28;20035;-81
2024/02/17 05:56:08;;;;;;;25.80;16.58;;;9.70;99.90;;;;;;4927368;28;20035;-81
2024/02/17 05:58:35;;;;;;;27.70;15.50;;;9.70;99.90;;;;;;4939279;28;20050;-81
2024/02/17 06:01:01;;;;;;;34.80;18.75;;;9.70;99.90;;;;;;4942001;28;20128;-82
2024/02/17 06:03:28;;;;;;;30.55;19.40;;;9.70;99.90;;;;;;4939199;28;20047;-81
2024/02/17 06:05:54;;;;;;;32.10;18.80;;;9.70;99.90;;;;;;4943906;28;20046;-81
2024/02/17 06:08:21;;;;;;;38.50;23.05;;;9.60;99.90;;;;;;4928315;28;20050;-81
2024/02/17 06:10:46;;;;;;;26.60;14.20;;;9.60;99.90;;;;;;4939821;28;20490;-81
2024/02/17 06:13:12;;;;;;;39.00;20.98;;;9.70;99.90;;;;;;4912971;28;20086;-81
2024/02/17 06:15:42;;;;;;;32.50;19.50;;;9.60;99.90;;;;;;4915484;28;20147;-81
2024/02/17 06:21:10;;;;;;;28.30;17.40;;;9.70;99.90;;;;;;4942274;28;20057;-81
2024/02/17 06:23:46;;;;;;;26.95;17.95;;;9.70;99.90;;;;;;4941745;28;20035;-81
2024/02/17 06:26:21;;;;;;;41.22;20.88;;;9.70;99.90;;;;;;4924630;28;20385;-81
2024/02/17 06:28:47;;;;;;;41.90;23.77;;;9.70;99.90;;;;;;4956071;28;20027;-81
2024/02/17 06:31:13;;;;;;;34.92;20.55;;;9.70;99.90;;;;;;4925729;28;20042;-82
2024/02/17 06:33:38;;;;;;;34.88;18.38;;;9.70;99.90;;;;;;4924104;28;20127;-81
2024/02/17 06:36:05;;;;;;;32.78;20.70;;;9.70;99.90;;;;;;4909767;28;20131;-82
2024/02/17 06:38:31;;;;;;;30.92;17.38;;;9.70;99.90;;;;;;4927701;28;20557;-82
2024/02/17 06:40:56;;;;;;;27.38;17.00;;;9.60;99.90;;;;;;4925385;28;20046;-80
2024/02/17 06:43:22;;;;;;;31.67;17.13;;;9.70;99.90;;;;;;4911669;28;20457;-80
2024/02/17 06:45:49;;;;;;;24.60;15.70;;;9.70;99.90;;;;;;4923114;28;20456;-80
2024/02/17 06:48:14;;;;;;;33.22;18.35;;;9.70;99.90;;;;;;4927644;28;20035;-79
2024/02/17 06:50:40;;;;;;;29.88;19.45;;;9.70;99.90;;;;;;4927111;28;20035;-79
2024/02/17 06:53:06;;;;;;;28.63;14.38;;;9.70;99.90;;;;;;4927284;28;20464;-78
2024/02/17 06:55:32;;;;;;;25.60;15.27;;;9.70;99.90;;;;;;4939364;28;20039;-78
2024/02/17 06:57:58;;;;;;;38.65;19.25;;;9.70;99.90;;;;;;4923670;28;20031;-78
2024/02/17 07:00:23;;;;;;;28.48;18.40;;;9.70;99.90;;;;;;4912149;28;20452;-77
2024/02/17 07:02:49;;;;;;;37.05;19.08;;;9.80;99.90;;;;;;4923548;28;20055;-77
2024/02/17 07:05:16;;;;;;;35.35;19.98;;;9.70;99.90;;;;;;4912558;28;20031;-78
2024/02/17 07:07:42;;;;;;;32.03;17.70;;;9.70;99.90;;;;;;4939953;28;20508;-78
2024/02/17 07:10:08;;;;;;;32.33;20.70;;;9.70;99.90;;;;;;4912166;28;20031;-78
2024/02/17 07:12:34;;;;;;;32.50;19.63;;;9.60;99.90;;;;;;4928286;28;20032;-77
2024/02/17 07:15:00;;;;;;;26.67;17.42;;;9.70;99.90;;;;;;4927428;28;20028;-77
2024/02/17 07:17:26;;;;;;;31.90;17.70;;;9.70;99.90;;;;;;4911831;28;20042;-77
2024/02/17 07:19:51;;;;;;;28.98;16.23;;;9.70;99.90;;;;;;4922700;28;20481;-79
2024/02/17 07:22:17;;;;;;;30.10;17.98;;;9.70;99.90;;;;;;4944525;28;20490;-77
2024/02/17 07:24:42;;;;;;;38.25;22.02;;;9.80;99.90;;;;;;4930464;28;20036;-78
2024/02/17 07:27:08;;;;;;;27.90;16.38;;;9.80;99.90;;;;;;4927948;28;20035;-78
2024/02/17 07:29:37;;;;;;;28.55;16.92;;;9.70;99.90;;;;;;4928799;28;20067;-78
2024/02/17 07:32:03;;;;;;;21.67;14.90;;;9.70;99.90;;;;;;4943023;28;20047;-80
2024/02/17 07:34:31;;;;;;;25.08;14.45;;;9.80;99.90;;;;;;4946791;28;20486;-80
2024/02/17 07:36:58;;;;;;;35.90;21.95;;;9.80;99.90;;;;;;4931310;28;20035;-79
2024/02/17 07:39:24;;;;;;;37.83;18.48;;;9.80;99.90;;;;;;4929084;28;20031;-80
2024/02/17 07:41:53;;;;;;;23.85;16.25;;;9.80;99.90;;;;;;4943830;28;20035;-76
2024/02/17 07:44:20;;;;;;;33.00;18.52;;;9.80;99.90;;;;;;4924510;28;20046;-79
2024/02/17 07:46:48;;;;;;;24.73;14.95;;;9.90;99.90;;;;;;4916095;28;20035;-79
2024/02/17 07:49:21;;;;;;;22.65;13.68;;;9.90;99.90;;;;;;4946949;28;20050;-80
2024/02/17 07:51:46;;;;;;;30.60;17.08;;;10.00;99.90;;;;;;4945833;28;20023;-79
2024/02/17 07:54:12;;;;;;;27.40;16.90;;;9.90;99.90;;;;;;4942516;28;20024;-79
2024/02/17 07:56:38;;;;;;;34.65;21.58;;;10.00;99.90;;;;;;4930294;28;20047;-79
2024/02/17 07:59:03;;;;;;;26.25;17.10;;;10.00;99.90;;;;;;4942943;28;20398;-79
2024/02/17 08:01:29;;;;;;;28.65;14.60;;;10.00;99.90;;;;;;4923387;28;20121;-79
2024/02/17 08:03:56;;;;;;;32.92;19.77;;;10.00;99.90;;;;;;4922422;28;20101;-80
2024/02/17 08:06:22;;;;;;;24.52;14.07;;;10.20;99.90;;;;;;4916049;28;20043;-78
2024/02/17 08:08:54;;;;;;;34.00;17.40;;;10.10;99.90;;;;;;4930796;28;20039;-79
2024/02/17 08:11:20;;;;;;;26.05;14.15;;;10.10;99.90;;;;;;4919059;28;20487;-79
2024/02/17 08:13:46;;;;;;;23.05;14.93;;;10.10;99.90;;;;;;4942633;28;20055;-79
2024/02/17 08:16:11;;;;;;;24.25;15.23;;;10.10;99.90;;;;;;4929519;28;20090;-79
2024/02/17 08:18:41;;;;;;;25.08;14.70;;;10.20;99.90;;;;;;4915755;28;20047;-79
2024/02/17 08:21:10;;;;;;;29.65;15.52;;;10.20;99.90;;;;;;4930255;28;20042;-80
2024/02/17 08:23:36;;;;;;;29.83;16.85;;;10.20;99.90;;;;;;4916030;28;20180;-78
2024/02/17 08:26:01;;;;;;;29.45;17.90;;;10.30;99.90;;;;;;4930514;29;20150;-78
2024/02/17 08:28:27;;;;;;;25.48;16.35;;;10.30;99.90;;;;;;4926996;28;20047;-78
2024/02/17 08:30:53;;;;;;;22.20;12.95;;;10.30;99.90;;;;;;4946256;28;20402;-79
2024/02/17 08:33:19;;;;;;;37.25;21.95;;;10.30;99.90;;;;;;4923597;28;20028;-79
2024/02/17 08:35:45;;;;;;;28.38;18.05;;;10.30;99.90;;;;;;4929151;28;20517;-80
2024/02/17 08:38:11;;;;;;;26.65;17.88;;;10.40;99.90;;;;;;4940743;28;20438;-80
2024/02/17 08:40:37;;;;;;;25.02;17.25;;;10.40;99.90;;;;;;4947281;28;20035;-80
2024/02/17 08:43:04;;;;;;;34.80;17.65;;;10.40;99.90;;;;;;4934054;28;20066;-80
2024/02/17 08:45:30;;;;;;;33.25;19.70;;;10.50;99.90;;;;;;4931049;29;20565;-79
2024/02/17 08:47:56;;;;;;;29.85;14.60;;;10.50;99.90;;;;;;4931570;28;20114;-80
2024/02/17 08:50:22;;;;;;;39.05;23.33;;;10.50;99.90;;;;;;4926936;28;20058;-79
2024/02/17 08:52:47;;;;;;;29.65;17.63;;;10.50;99.90;;;;;;4929916;28;20032;-80
2024/02/17 08:55:13;;;;;;;45.80;26.02;;;10.60;99.90;;;;;;4927100;28;20452;-79
2024/02/17 08:57:39;;;;;;;28.45;17.67;;;10.60;99.90;;;;;;4939200;28;20034;-79
2024/02/17 09:00:05;;;;;;;33.05;20.52;;;10.60;99.90;;;;;;4922012;28;20069;-79
2024/02/17 09:02:34;;;;;;;28.13;14.63;;;10.70;99.90;;;;;;4935159;28;20039;-80
2024/02/17 09:05:01;;;;;;;27.65;19.50;;;10.70;99.90;;;;;;4928991;28;20491;-79
2024/02/17 09:07:27;;;;;;;35.85;20.60;;;10.70;99.90;;;;;;4944591;28;22587;-79
2024/02/17 09:09:53;;;;;;;33.15;19.58;;;10.90;99.90;;;;;;4927546;28;20043;-80
2024/02/17 09:12:19;;;;;;;32.90;15.75;;;10.80;99.90;;;;;;4931904;28;20033;-77
2024/02/17 09:14:45;;;;;;;31.27;19.50;;;10.80;99.90;;;;;;4926549;28;20150;-77
2024/02/17 09:17:11;;;;;;;35.60;20.42;;;10.80;99.90;;;;;;4921854;28;20548;-77
2024/02/17 09:19:36;;;;;;;46.38;26.35;;;10.80;99.90;;;;;;4942541;28;20135;-77
2024/02/17 09:22:04;;;;;;;37.60;22.55;;;10.90;99.90;;;;;;4929525;28;20035;-77
2024/02/17 09:24:33;;;;;;;37.08;22.90;;;10.90;99.90;;;;;;4909561;28;20105;-77
2024/02/17 09:27:01;;;;;;;37.47;20.20;;;11.00;99.90;;;;;;4925916;28;20407;-79
2024/02/17 09:29:28;;;;;;;46.15;26.45;;;11.00;99.90;;;;;;4941086;28;20031;-77
2024/02/17 09:31:53;;;;;;;34.92;20.73;;;11.10;99.90;;;;;;4942470;28;20050;-77
2024/02/17 09:34:19;;;;;;;42.00;23.48;;;11.10;99.90;;;;;;4909002;28;20405;-79
2024/02/17 09:36:47;;;;;;;36.33;20.27;;;11.10;99.90;;;;;;4913005;28;20039;-79
2024/02/17 09:39:13;;;;;;;39.78;20.77;;;11.10;99.90;;;;;;4936190;28;20039;-79
2024/02/17 09:41:41;;;;;;;39.85;23.63;;;11.20;99.90;;;;;;4913931;28;20127;-79
2024/02/17 09:44:10;;;;;;;51.55;30.55;;;11.20;99.90;;;;;;4913376;29;20050;-79
2024/02/17 09:46:36;;;;;;;42.78;24.90;;;11.30;99.90;;;;;;4910083;28;20042;-80
2024/02/17 09:49:02;;;;;;;42.00;23.27;;;11.30;99.90;;;;;;4944068;28;20035;-80
2024/02/17 09:51:31;;;;;;;52.20;31.92;;;11.30;99.90;;;;;;4929254;28;20406;-83
2024/02/17 09:53:57;;;;;;;40.30;24.25;;;11.30;99.90;;;;;;4925517;28;20039;-80
2024/02/17 09:56:26;;;;;;;44.92;25.80;;;11.30;99.90;;;;;;4942974;28;20046;-80
2024/02/17 09:58:52;;;;;;;52.20;28.55;;;11.30;99.90;;;;;;4912926;28;20627;-79
2024/02/17 10:01:19;;;;;;;42.30;25.10;;;11.40;99.90;;;;;;4923643;28;20035;-79
2024/02/17 10:03:51;;;;;;;45.47;25.42;;;11.30;99.90;;;;;;4925760;28;20500;-80
2024/02/17 10:06:16;;;;;;;34.20;19.75;;;11.30;99.90;;;;;;4955229;28;20047;-79
2024/02/17 10:08:45;;;;;;;36.85;22.83;;;11.30;99.90;;;;;;4907309;28;20034;-79
2024/02/17 10:11:11;;;;;;;51.58;31.85;;;11.40;99.90;;;;;;4923920;28;20040;-82
2024/02/17 10:13:37;;;;;;;39.63;26.63;;;11.40;99.90;;;;;;4914699;28;20045;-80
2024/02/17 10:16:14;;;;;;;38.50;21.65;;;11.30;99.90;;;;;;4927157;28;20130;-80
2024/02/17 10:18:46;;;;;;;38.10;23.23;;;11.50;99.90;;;;;;4930549;28;20503;-80
2024/02/17 10:21:12;;;;;;;40.35;25.27;;;11.50;99.90;;;;;;4954135;28;20032;-80
2024/02/17 10:23:38;;;;;;;41.78;26.98;;;11.50;99.90;;;;;;4922116;28;20048;-80
2024/02/17 10:26:07;;;;;;;42.03;24.02;;;11.60;99.90;;;;;;4934424;28;20074;-80
2024/02/17 10:28:36;;;;;;;44.22;26.52;;;11.60;99.90;;;;;;4924945;28;20032;-80
2024/02/17 10:31:03;;;;;;;58.35;31.40;;;11.70;99.90;;;;;;4940475;28;20035;-80
2024/02/17 10:33:28;;;;;;;40.03;22.40;;;11.60;99.90;;;;;;4920655;28;20046;-79
2024/02/17 10:35:56;;;;;;;40.85;22.27;;;11.70;99.90;;;;;;4924231;28;20040;-81
2024/02/17 10:38:23;;;;;;;42.35;23.75;;;11.50;99.90;;;;;;4909144;28;20035;-79
2024/02/17 10:40:49;;;;;;;36.70;21.42;;;11.60;99.90;;;;;;4922868;28;20040;-79
2024/02/17 10:43:14;;;;;;;40.75;25.67;;;11.50;99.90;;;;;;4922685;28;20539;-79
2024/02/17 10:45:40;;;;;;;42.42;23.25;;;11.50;99.90;;;;;;4910494;28;20038;-78
2024/02/17 10:48:07;;;;;;;47.85;27.75;;;11.60;99.90;;;;;;4914736;28;20054;-78
2024/02/17 10:50:44;;;;;;;42.13;23.52;;;11.70;99.90;;;;;;4909377;28;20523;-77
2024/02/17 10:53:32;;;;;;;40.00;27.63;;;11.80;99.90;;;;;;4934864;28;20416;-78
2024/02/17 10:55:59;;;;;;;38.42;24.15;;;12.10;99.90;;;;;;4941290;28;20047;-79
2024/02/17 10:58:24;;;;;;;41.55;24.65;;;12.00;99.90;;;;;;4914406;28;20035;-77
2024/02/17 11:00:50;;;;;;;45.63;28.85;;;12.00;99.90;;;;;;4937622;28;20042;-78
2024/02/17 11:03:32;;;;;;;36.17;22.60;;;12.20;99.90;;;;;;4938776;28;20517;-78
2024/02/17 11:06:03;;;;;;;39.08;22.95;;;12.00;99.90;;;;;;4928543;28;20061;-77
2024/02/17 11:08:29;;;;;;;40.60;23.38;;;11.80;99.90;;;;;;4927422;28;20594;-78
2024/02/17 11:10:55;;;;;;;44.60;24.77;;;12.00;99.90;;;;;;4918410;28;20047;-78
2024/02/17 11:13:22;;;;;;;38.80;19.48;;;12.20;99.90;;;;;;4927422;28;20493;-78
2024/02/17 11:16:04;;;;;;;45.10;26.95;;;12.30;99.90;;;;;;4927173;28;20036;-78
2024/02/17 11:18:41;;;;;;;38.55;23.00;;;12.30;99.90;;;;;;4940721;28;21202;-77
2024/02/17 11:21:07;;;;;;;43.67;27.90;;;12.40;99.90;;;;;;4940351;28;20028;-78
2024/02/17 11:23:34;;;;;;;41.50;26.55;;;12.30;99.90;;;;;;4938215;28;20102;-78
2024/02/17 11:26:00;;;;;;;43.42;27.00;;;12.20;99.90;;;;;;4938653;28;20035;-78
2024/02/17 11:28:26;;;;;;;47.45;26.55;;;12.20;99.90;;;;;;4937856;28;20513;-78
2024/02/17 11:30:52;;;;;;;40.95;25.25;;;12.20;99.90;;;;;;4913567;28;20421;-79
2024/02/17 11:33:31;;;;;;;45.30;23.50;;;12.30;99.90;;;;;;4940128;28;20039;-78
2024/02/17 11:35:57;;;;;;;51.65;31.35;;;12.40;99.90;;;;;;4911380;28;20086;-79
2024/02/17 11:38:26;;;;;;;39.78;25.90;;;12.40;99.90;;;;;;4940761;28;20058;-78
2024/02/17 11:41:01;;;;;;;52.30;31.35;;;12.60;99.90;;;;;;4923410;28;20045;-77
2024/02/17 11:43:28;;;;;;;52.33;30.27;;;12.40;99.90;;;;;;4923141;28;20036;-78
2024/02/17 11:45:54;;;;;;;56.92;32.33;;;12.50;99.90;;;;;;4941905;28;20042;-78
2024/02/17 11:48:20;;;;;;;40.97;24.58;;;12.40;99.90;;;;;;4928488;28;20035;-78
2024/02/17 11:50:46;;;;;;;53.60;32.67;;;12.40;99.90;;;;;;4938343;28;20043;-78
2024/02/17 11:53:13;;;;;;;46.35;26.10;;;12.40;99.90;;;;;;4924599;28;20024;-78
2024/02/17 11:55:39;;;;;;;53.05;31.35;;;12.50;99.90;;;;;;4919835;28;20380;-79
2024/02/17 11:58:10;;;;;;;55.52;33.00;;;12.50;99.90;;;;;;4120484;28;10000837;-78
2024/02/17 12:00:47;;;;;;;45.97;27.67;;;12.50;99.90;;;;;;4924350;28;20249;-79
2024/02/17 12:03:14;;;;;;;41.85;27.23;;;12.60;99.90;;;;;;4925483;28;20039;-79
2024/02/17 12:05:41;;;;;;;49.22;28.75;;;12.40;99.90;;;;;;4921044;28;20028;-78
2024/02/17 12:08:08;;;;;;;46.72;27.65;;;12.50;99.90;;;;;;4922533;28;20034;-78
2024/02/17 12:10:39;;;;;;;55.47;31.58;;;12.50;99.90;;;;;;4809756;28;10001799;-78
2024/02/17 12:13:05;;;;;;;41.88;21.90;;;12.50;99.90;;;;;;4247184;28;10000332;-77
2024/02/17 12:15:31;;;;;;;28.88;13.70;;;12.50;99.90;;;;;;4925108;28;20036;-77
2024/02/17 12:17:56;;;;;;;49.83;31.58;;;12.50;99.90;;;;;;4926114;28;20126;-78
2024/02/17 12:20:22;;;;;;;32.17;16.80;;;12.40;99.90;;;;;;4937841;28;20118;-78
2024/02/17 12:22:50;;;;;;;23.08;11.68;;;12.40;99.90;;;;;;4928032;28;20039;-79
2024/02/17 12:25:17;;;;;;;48.85;25.95;;;12.50;99.90;;;;;;4925459;28;20118;-78
2024/02/17 12:27:43;;;;;;;47.70;23.90;;;12.40;99.90;;;;;;4939372;28;20031;-78
2024/02/17 12:30:09;;;;;;;41.15;25.45;;;12.50;99.90;;;;;;4927637;28;20036;-79